Skip Navigation Links Skip Navigation Links

Current Weather

Kenosha Regional, Kenosha, Wis.

For information only: do not use for flight planning or navigation.
Latest weather
Observation time Sunday, October 13, 2019 5:53 PM CDT
Local time Sunday, October 13, 2019 6:39 PM CDT
Flight conditions Visual Meteorological Conditions
Winds
Wind direction West-Northwest (290°)
Wind speed 10 mph
Wind gusting to 16 mph
Visibility 10 mi.
Sky condition
Ceiling 4,200 ft. overcast
Cloud layer overcast 4,200 ft.
Temperature 45°F
Dewpoint 34°F
Altimeter 29.87 in.Hg
Derived measurements
Relative humidity 66%
Wind chill 39°F
Density altitude -61 ft.
METAR KENW 132253Z 29009G14KT 10SM OVC042 07/01 A2987

Settings

Location code

InnerDrive.Weather 4.0.6770.0 Release CLR 4.0.30319.42000
Copyright ©2018 Inner Drive Technology. All rights reserved. Portions Copyright ©1986-2018 David Braverman.

Find weather

Site navigation


Skip Navigation Links

Place info

Page info

PayPal - The safer, easier way to pay online!

Return home.

Copyright ©2019 Inner Drive Technology. Purveyors of fine, hand-crafted computer software. Page printed 2019-10-13T23:39:33 UTC.